Kaltag, AK

8:42 AM AKDT on August 25, 2016 (GMT -0800)
Kaltag | | Change Station

Elev 200 ft 64.32 °N, 158.74 °W | Updated 52 minutes ago

Light Rain
Light Rain Mist
57 °F
Feels Like 57 °F
N
0
Wind Variable Wind from North

Today
High -- | Low -- °F
--% Chance of Precip.
Yesterday
High -- | Low -- °F
Precip. -- in
Pressure 30.12 in
Visibility 1.8 miles
Clouds Few 700 ft
Few 1800 ft
Overcast 2200 ft
Dew Point 55 °F
Humidity 93%
Rainfall 0.14 in
Snow Depth Not available.
6:57 AM 10:13 PM
Last Quarter, 44% visible
METAR PAKV 251550Z AUTO 00000KT 1 3/4SM -RA BR FEW007 FEW018 OVC022 14/13 A3012 RMK AO2 SLP200 P0006 T01390128 TSNO
Pressure 30.12 in
Visibility 1.8 miles
Clouds Few 700 ft
Few 1800 ft
Overcast 2200 ft
Dew Point 55 °F
Humidity 93%
Rainfall 0.14 in
Snow Depth Not available.
6:57 AM 10:13 PM
Last Quarter, 44% visible
METAR PAKV 251550Z AUTO 00000KT 1 3/4SM -RA BR FEW007 FEW018 OVC022 14/13 A3012 RMK AO2 SLP200 P0006 T01390128 TSNO

10-Day Weather Forecast

Almanac

Astronomy

Aug. 25, 2016 Rise Set
Actual Time
Civil Twilight
Nautical Twilight
Astronomical Twilight
Moon
Length of Visible Light
Length of Day
Tomorrow will be .
, % of the Moon is Illuminated

Today's Extremes

State Highs State Lows

Community

WunderPhotos

Upload Photos

1,934,869 photos uploaded!

WunderBlog® & News

Nearby

Air Quality

  Air Quality AQ Index Pollutant
Not available.

Snow Depth

Station Depth Elevation

Earthquake Activity

City Distance Mag. Time & Date
Minimum magnitude displayed is 2.5.

Coastal Water Temperatures

Place Temperature

Stations

Nearby Weather Stations

Station Location Temp. Windchill Dew Point Humidity Wind Precip. Elev Updated Type
                   

Watches & Warnings

There are currently no watches in effect.